Time;durP1;ratioP1;P1;durP2;ratioP2;P2;SDS_P1;SDS_P2;PMS_P1;PMS_P2;Temp;Humidity;BMP_temperature;BMP_pressure;BME280_temperature;BME280_humidity;BME280_pressure;Samples;Min_cycle;Max_cycle;Signal;HPM_P1;HPM_P2
2022/03/29 00:01:51;;;;;;;2.67;2.45;;;;;;;19.95;42.49;96474.59;10288643;28;20391;-59
2022/03/29 00:07:11;;;;;;;2.47;2.28;;;;;;;19.92;42.39;96454.44;10284421;28;20067;-58
2022/03/29 00:12:34;;;;;;;2.58;2.38;;;;;;;19.93;42.44;96447.13;10310670;28;20043;-58
2022/03/29 00:17:54;;;;;;;2.67;2.47;;;;;;;19.92;42.30;96440.94;10292061;28;20050;-58
2022/03/29 00:23:14;;;;;;;2.28;2.08;;;;;;;19.92;42.35;96438.22;10289720;28;20124;-59
2022/03/29 00:28:34;;;;;;;2.53;2.33;;;;;;;19.91;42.24;96433.13;10300238;28;20046;-58
2022/03/29 00:33:53;;;;;;;2.58;2.38;;;;;;;19.89;42.44;96436.16;10288009;28;20418;-58
2022/03/29 00:39:12;;;;;;;2.60;2.40;;;;;;;19.89;42.36;96422.66;10303804;28;20043;-58
2022/03/29 00:44:33;;;;;;;2.40;2.20;;;;;;;19.88;42.39;96418.38;10290197;28;20046;-58
2022/03/29 00:49:53;;;;;;;2.65;2.45;;;;;;;19.86;42.38;96417.94;10304224;28;20062;-58
2022/03/29 00:55:13;;;;;;;2.50;2.30;;;;;;;19.87;42.34;96424.13;10289506;28;20042;-58
2022/03/29 01:00:34;;;;;;;2.47;2.08;;;;;;;19.85;42.32;96426.38;10284719;28;20059;-57
2022/03/29 01:05:54;;;;;;;2.35;2.15;;;;;;;19.84;42.26;96433.69;10296975;28;20508;-58
2022/03/29 01:11:13;;;;;;;2.35;2.15;;;;;;;19.84;42.28;96441.81;10295925;28;20093;-58
2022/03/29 01:22:12;;;;;;;2.28;2.05;;;;;;;19.82;42.12;96433.25;10297807;28;20066;-58
2022/03/29 01:27:32;;;;;;;2.25;2.05;;;;;;;19.82;42.22;96422.44;10288313;28;20057;-58
2022/03/29 01:32:52;;;;;;;2.25;2.00;;;;;;;19.78;42.13;96421.53;10287343;28;20050;-58
2022/03/29 01:38:12;;;;;;;2.60;2.40;;;;;;;19.78;42.15;96418.81;10279003;28;20078;-57
2022/03/29 01:43:34;;;;;;;2.30;2.10;;;;;;;19.77;42.08;96409.13;10289856;28;20109;-57
2022/03/29 01:48:53;;;;;;;2.05;1.95;;;;;;;19.77;42.01;96400.22;10286666;28;20417;-58
2022/03/29 01:54:13;;;;;;;1.90;1.80;;;;;;;19.76;41.91;96391.34;10300851;28;20105;-58
2022/03/29 02:00:30;;;;;;;2.35;2.15;;;;;;;19.75;41.98;96384.34;10287132;28;20533;-58
2022/03/29 02:05:12;;;;;;;2.20;2.00;;;;;;;19.74;41.93;96369.28;10286425;28;20050;-58
2022/03/29 02:10:31;;;;;;;2.30;2.10;;;;;;;19.73;41.92;96371.16;10288074;28;20059;-58
2022/03/29 02:15:51;;;;;;;2.17;2.00;;;;;;;19.72;41.92;96363.41;10289346;28;20050;-58
2022/03/29 02:21:14;;;;;;;1.90;1.80;;;;;;;19.70;41.91;96354.81;10284628;28;20051;-58
2022/03/29 02:26:34;;;;;;;2.50;2.28;;;;;;;19.69;41.98;96353.22;10272201;28;20050;-58
2022/03/29 02:31:53;;;;;;;2.28;2.08;;;;;;;19.69;41.82;96353.22;10287477;28;20106;-55
2022/03/29 02:37:13;;;;;;;2.00;1.90;;;;;;;19.68;41.94;96357.03;10282536;28;20121;-58
2022/03/29 02:42:33;;;;;;;2.15;2.05;;;;;;;19.66;41.93;96359.28;10296589;28;20039;-57
2022/03/29 02:47:54;;;;;;;2.35;2.15;;;;;;;19.66;41.90;96343.88;10287163;28;20047;-57
2022/03/29 02:53:17;;;;;;;2.20;2.00;;;;;;;19.65;41.88;96341.53;10286991;28;20051;-57
2022/03/29 02:58:36;;;;;;;2.00;1.90;;;;;;;19.64;41.88;96329.94;10285750;28;20399;-57
2022/03/29 03:03:56;;;;;;;2.40;2.20;;;;;;;19.64;41.90;96342.63;10294402;28;20055;-59
2022/03/29 03:09:15;;;;;;;2.13;1.92;;;;;;;19.62;41.73;96342.19;10293637;28;20050;-58
2022/03/29 03:14:34;;;;;;;3.88;2.10;;;;;;;19.61;41.81;96341.41;10283803;28;20047;-58
2022/03/29 03:19:54;;;;;;;2.10;1.88;;;;;;;19.60;41.69;96336.31;10283497;28;20106;-58
2022/03/29 03:25:13;;;;;;;2.63;2.03;;;;;;;19.59;41.60;96329.34;10286221;28;20494;-58
2022/03/29 03:30:33;;;;;;;2.20;2.00;;;;;;;19.58;41.75;96325.06;10293943;28;20631;-58
2022/03/29 03:35:52;;;;;;;2.05;1.92;;;;;;;19.56;41.68;96320.78;10291843;28;20050;-58
2022/03/29 03:41:12;;;;;;;2.15;1.95;;;;;;;19.54;41.58;96312.25;10294035;28;20450;-58
2022/03/29 03:46:31;;;;;;;1.90;1.80;;;;;;;19.55;41.67;96299.50;10292341;28;20055;-58
2022/03/29 03:51:51;;;;;;;2.45;1.88;;;;;;;19.54;41.57;96292.50;10294289;28;21473;-57
2022/03/29 03:57:10;;;;;;;1.95;1.75;;;;;;;19.55;41.59;96307.63;10290032;28;20472;-58
2022/03/29 04:02:29;;;;;;;2.08;1.98;;;;;;;19.54;41.59;96316.84;10290910;28;20065;-57
2022/03/29 04:07:49;;;;;;;1.98;1.80;;;;;;;19.54;41.56;96325.75;10291300;28;20058;-59
2022/03/29 04:13:09;;;;;;;2.03;1.83;;;;;;;19.56;41.62;96322.69;10288872;28;20055;-57
2022/03/29 04:18:28;;;;;;;2.28;2.08;;;;;;;19.56;41.86;96312.69;10291462;28;20402;-58
2022/03/29 04:23:48;;;;;;;3.33;2.20;;;;;;;19.57;41.95;96308.06;10287008;28;20114;-57
2022/03/29 04:29:08;;;;;;;3.33;1.90;;;;;;;19.60;41.99;96306.59;10289662;28;20057;-58
2022/03/29 04:34:27;;;;;;;3.58;2.25;;;;;;;19.62;42.27;96304.34;10276530;28;20062;-58
2022/03/29 04:39:46;;;;;;;2.00;1.67;;;;;;;19.64;42.34;96307.50;10289099;28;20051;-59
2022/03/29 04:45:06;;;;;;;2.08;1.88;;;;;;;19.67;42.42;96304.13;10299685;28;20490;-59
2022/03/29 04:50:26;;;;;;;3.28;1.90;;;;;;;19.68;42.34;96298.41;10286773;28;20061;-58
2022/03/29 04:55:45;;;;;;;1.90;1.80;;;;;;;19.70;42.49;96296.16;10302004;28;20042;-58
2022/03/29 05:01:04;;;;;;;1.95;1.80;;;;;;;19.74;42.70;96290.91;10300922;28;20054;-59
2022/03/29 05:06:24;;;;;;;2.58;1.80;;;;;;;19.75;42.69;96281.66;10299025;28;20043;-59
2022/03/29 05:11:43;;;;;;;2.13;1.92;;;;;;;19.76;42.70;96277.84;10287248;28;20129;-58
2022/03/29 05:17:03;;;;;;;3.17;2.67;;;;;;;19.77;42.21;96290.19;10299141;28;20042;-57
2022/03/29 05:22:22;;;;;;;6.10;2.97;;;;;;;19.80;42.23;96284.13;10298967;28;20050;-59
2022/03/29 05:27:42;;;;;;;4.82;2.88;;;;;;;19.83;42.36;96279.97;10284596;28;20085;-59
2022/03/29 05:33:03;;;;;;;9.38;7.35;;;;;;;18.84;34.13;96278.97;10280728;28;20130;-59
2022/03/29 05:38:23;;;;;;;10.07;8.35;;;;;;;18.84;34.13;96278.97;10283111;28;20059;-57
2022/03/29 05:43:42;;;;;;;8.40;6.68;;;;;;;18.84;34.13;96278.97;10282499;28;20058;-58
2022/03/29 05:49:02;;;;;;;15.18;6.35;;;;;;;18.92;37.67;96284.28;10286832;28;20054;-58
2022/03/29 05:54:21;;;;;;;10.93;6.72;;;;;;;19.16;35.22;96288.19;10287499;28;20047;-58
2022/03/29 05:59:41;;;;;;;8.88;5.75;;;;;;;19.28;36.74;96290.13;10288517;28;20084;-58
2022/03/29 06:05:01;;;;;;;7.57;5.70;;;;;;;19.37;37.29;96282.72;10285242;28;20058;-59
2022/03/29 06:10:20;;;;;;;7.07;5.70;;;;;;;19.45;37.22;96287.22;10286013;28;20054;-59
2022/03/29 06:15:40;;;;;;;7.63;5.30;;;;;;;19.52;37.23;96294.75;10278961;28;20387;-58
2022/03/29 06:21:00;;;;;;;9.68;5.75;;;;;;;19.58;37.23;96289.94;10287366;28;20058;-59
2022/03/29 06:26:20;;;;;;;24.38;6.93;;;;;;;19.60;36.88;96293.91;10278233;28;20186;-58
2022/03/29 06:31:40;;;;;;;30.30;8.98;;;;;;;19.65;35.60;96292.88;10283097;28;20050;-58
2022/03/29 06:36:59;;;;;;;29.88;15.23;;;;;;;19.65;34.91;96295.59;10283046;28;20074;-58
2022/03/29 06:42:19;;;;;;;28.90;16.80;;;;;;;19.64;34.54;96297.50;10276572;28;20114;-58
2022/03/29 06:47:41;;;;;;;24.67;15.27;;;;;;;19.63;34.13;96301.31;10279336;28;20482;-57
2022/03/29 06:53:01;;;;;;;20.13;11.18;;;;;;;19.61;34.39;96290.06;10287768;28;20070;-58
2022/03/29 06:58:21;;;;;;;15.98;10.55;;;;;;;19.61;36.17;96290.06;10288480;28;20055;-57
2022/03/29 07:03:40;;;;;;;18.52;10.77;;;;;;;19.61;36.28;96290.06;10295958;28;20054;-58
2022/03/29 07:14:39;;;;;;;15.75;10.43;;;;;;;19.64;35.37;96288.59;10288763;28;20050;-58
2022/03/29 07:19:58;;;;;;;14.18;9.95;;;;;;;19.64;36.20;96285.88;10290734;28;20065;-58
2022/03/29 07:25:20;;;;;;;11.23;8.95;;;;;;;19.65;36.17;96276.66;10287056;28;20106;-58
2022/03/29 07:30:43;;;;;;;13.52;9.60;;;;;;;19.66;36.31;96272.81;10288682;28;20391;-58
2022/03/29 07:36:03;;;;;;;12.80;8.73;;;;;;;19.68;36.37;96270.56;10290689;28;20070;-58
2022/03/29 07:41:23;;;;;;;14.30;9.13;;;;;;;19.69;36.29;96272.94;10302531;28;20042;-58
2022/03/29 07:46:42;;;;;;;12.70;8.85;;;;;;;19.68;36.62;96263.28;10293721;28;20497;-58
2022/03/29 07:52:02;;;;;;;11.88;8.77;;;;;;;19.70;36.50;96271.84;10310203;28;20498;-58
2022/03/29 07:57:21;;;;;;;13.07;8.95;;;;;;;19.70;36.63;96273.75;10300913;28;20094;-57
2022/03/29 08:02:41;;;;;;;12.35;8.85;;;;;;;19.70;36.84;96268.34;10282090;28;20066;-58
2022/03/29 08:08:01;;;;;;;10.63;8.43;;;;;;;19.71;36.68;96265.31;10303670;28;20043;-58
2022/03/29 08:13:22;;;;;;;12.63;8.77;;;;;;;19.71;36.87;96253.69;10284934;28;20054;-59
2022/03/29 08:18:42;;;;;;;11.30;8.30;;;;;;;19.71;37.08;96248.28;10293675;28;20054;-57
2022/03/29 08:24:02;;;;;;;10.45;7.88;;;;;;;19.72;37.13;96248.00;10296735;28;20054;-57
2022/03/29 08:29:21;;;;;;;11.95;7.63;;;;;;;19.72;37.32;96239.09;10295720;28;20109;-57
2022/03/29 08:34:41;;;;;;;9.88;8.05;;;;;;;19.72;37.27;96244.50;10297534;28;20034;-56
2022/03/29 08:40:00;;;;;;;10.77;7.80;;;;;;;19.72;37.44;96237.19;10280531;28;20055;-54
2022/03/29 08:45:26;;;;;;;11.85;7.40;;;;;;;19.72;37.51;96236.41;10286307;28;20047;-57
2022/03/29 08:50:47;;;;;;;9.73;7.45;;;;;;;19.73;37.46;96227.16;10280739;28;20051;-57
2022/03/29 08:56:07;;;;;;;9.02;7.05;;;;;;;19.73;37.69;96229.84;10293617;28;20375;-58
2022/03/29 09:01:27;;;;;;;10.95;7.78;;;;;;;19.73;37.61;96229.84;10286933;28;20059;-54
2022/03/29 09:06:49;;;;;;;12.23;7.00;;;;;;;19.73;37.63;96230.63;10290093;28;20517;-54
2022/03/29 09:12:20;;;;;;;8.93;7.05;;;;;;;19.72;37.79;96226.38;10322374;28;20043;-57
2022/03/29 09:17:45;;;;;;;9.23;6.90;;;;;;;19.72;37.65;96231.00;10266331;28;20050;-57
2022/03/29 09:23:05;;;;;;;8.75;6.65;;;;;;;19.72;37.70;96222.88;10283390;28;20050;-57
2022/03/29 09:28:32;;;;;;;9.15;6.43;;;;;;;19.70;37.83;96220.47;10270648;28;20544;-56
2022/03/29 09:34:09;;;;;;;7.97;6.80;;;;;;;19.71;37.86;96211.25;10283087;28;20417;-55
2022/03/29 09:39:42;;;;;;;7.07;6.38;;;;;;;19.71;37.86;96208.56;10276872;28;20062;-58
2022/03/29 09:45:09;;;;;;;7.20;6.45;;;;;;;19.71;38.04;96199.66;10262011;28;20038;-57
2022/03/29 09:50:29;;;;;;;8.80;6.43;;;;;;;19.70;37.95;96198.88;10296858;28;20045;-57
2022/03/29 09:55:58;;;;;;;7.65;6.82;;;;;;;19.69;38.12;96202.69;10288182;28;20047;-58
2022/03/29 10:01:24;;;;;;;6.95;6.13;;;;;;;19.69;38.17;96193.78;10289263;28;20117;-57
2022/03/29 10:06:47;;;;;;;7.45;6.00;;;;;;;19.69;38.05;96197.28;10284157;28;20065;-56
2022/03/29 10:12:07;;;;;;;11.55;8.60;;;;;;;19.70;38.04;96192.69;10299323;28;20049;-57
2022/03/29 10:17:28;;;;;;;20.17;12.95;;;;;;;19.56;34.93;96184.91;10285671;28;20047;-54
2022/03/29 10:22:47;;;;;;;18.52;14.45;;;;;;;19.43;35.00;96183.34;10259746;28;20058;-59
2022/03/29 10:28:07;;;;;;;21.85;14.95;;;;;;;19.36;34.57;96173.09;10284326;28;20054;-56
2022/03/29 10:33:30;;;;;;;21.98;12.90;;;;;;;19.35;34.93;96169.59;10265412;28;20059;-58
2022/03/29 10:38:51;;;;;;;22.13;13.90;;;;;;;19.40;37.10;96165.88;10285131;28;20101;-59
2022/03/29 10:44:14;;;;;;;19.25;11.82;;;;;;;19.45;38.51;96165.66;10286550;28;20414;-59
2022/03/29 10:49:34;;;;;;;16.50;10.55;;;;;;;19.47;38.59;96147.22;10303483;28;20054;-59
2022/03/29 10:55:14;;;;;;;16.48;9.30;;;;;;;19.50;39.13;96149.25;10278180;28;20051;-58
2022/03/29 11:00:35;;;;;;;16.10;8.57;;;;;;;19.51;39.10;96142.69;10282487;28;20062;-60
2022/03/29 11:06:12;;;;;;;15.85;8.55;;;;;;;19.52;39.63;96138.88;10282212;28;20077;-57
2022/03/29 11:11:43;;;;;;;11.30;7.53;;;;;;;19.53;39.45;96128.84;10294496;28;20039;-58
2022/03/29 11:17:16;;;;;;;10.23;7.18;;;;;;;19.54;39.28;96120.41;10293709;28;20065;-59
2022/03/29 11:22:36;;;;;;;19.90;8.65;;;;;;;19.55;39.47;96115.78;10287119;28;20784;-60
2022/03/29 11:28:05;;;;;;;20.15;13.93;;;;;;;19.50;36.93;96107.91;10285445;28;20089;-57
2022/03/29 11:33:34;;;;;;;22.63;15.52;;;;;;;19.41;35.59;96110.75;10284460;28;20502;-59
2022/03/29 11:38:54;;;;;;;22.85;15.68;;;;;;;19.35;35.67;96106.72;10283218;28;20043;-58
2022/03/29 11:44:14;;;;;;;21.48;15.57;;;;;;;19.28;35.26;96106.47;10268105;28;20077;-58
2022/03/29 11:49:39;;;;;;;21.08;15.18;;;;;;;19.24;34.86;96100.19;10280578;28;20078;-58
2022/03/29 11:54:58;;;;;;;24.88;15.52;;;;;;;19.19;34.87;96090.41;10286822;28;20047;-59
2022/03/29 12:00:26;;;;;;;18.83;14.80;;;;;;;19.15;34.95;96084.91;10283874;28;20050;-58
2022/03/29 12:05:45;;;;;;;17.85;14.10;;;;;;;19.13;34.92;96072.84;10280120;28;20061;-58
2022/03/29 12:11:12;;;;;;;21.10;15.88;;;;;;;19.10;34.61;96060.03;10288931;28;20118;-57
2022/03/29 12:16:37;;;;;;;16.73;12.82;;;;;;;19.07;35.17;96058.81;10300094;28;20612;-58
2022/03/29 12:22:00;;;;;;;15.43;9.73;;;;;;;19.12;35.47;96053.16;10283629;28;20505;-59
2022/03/29 12:27:21;;;;;;;21.88;11.07;;;;;;;19.14;35.65;96048.22;10268761;28;20410;-58
2022/03/29 12:32:45;;;;;;;17.15;9.93;;;;;;;19.17;36.01;96046.75;10291045;28;20054;-59
2022/03/29 12:38:06;;;;;;;17.70;8.80;;;;;;;19.20;35.98;96045.28;10291227;28;20050;-59
2022/03/29 12:43:27;;;;;;;20.73;9.27;;;;;;;19.19;36.10;96033.72;10292179;28;20065;-59
2022/03/29 12:48:48;;;;;;;14.95;8.13;;;;;;;19.21;36.25;96025.25;10306887;28;20057;-58
2022/03/29 12:54:10;;;;;;;18.52;8.40;;;;;;;19.19;36.31;96016.69;10297682;28;20422;-59
2022/03/29 12:59:38;;;;;;;17.35;8.38;;;;;;;19.19;36.23;96006.72;10291598;28;20058;-59
2022/03/29 13:04:58;;;;;;;24.15;8.30;;;;;;;19.20;36.09;96010.97;10292148;28;20058;-58
2022/03/29 13:10:40;;;;;;;30.10;8.93;;;;;;;19.20;36.23;95996.69;10310586;28;20054;-58
2022/03/29 13:16:05;;;;;;;27.55;9.90;;;;;;;19.19;36.25;95995.09;10290934;28;20055;-58
2022/03/29 13:21:34;;;;;;;20.27;8.60;;;;;;;19.19;36.23;95995.91;10304139;28;20049;-58
2022/03/29 13:26:54;;;;;;;;;;;;;;;19.20;36.66;95993.97;10291027;28;20054;-59
2022/03/29 13:32:15;;;;;;;13.30;7.85;;;;;;;19.21;36.76;95990.13;10290397;28;19929;-58
2022/03/29 13:37:35;;;;;;;12.30;7.75;;;;;;;19.20;37.58;95981.25;10290651;28;20421;-59
2022/03/29 13:42:54;;;;;;;11.18;6.50;;;;;;;19.22;37.48;95983.63;10303587;28;20061;-58
2022/03/29 13:48:13;;;;;;;14.93;6.75;;;;;;;19.23;37.39;95975.19;10290317;28;20509;-58
2022/03/29 13:53:34;;;;;;;11.15;6.47;;;;;;;19.23;37.19;95974.38;10310432;28;20502;-58
2022/03/29 13:58:53;;;;;;;12.23;6.80;;;;;;;19.24;36.83;95960.53;10290199;28;20890;-58
2022/03/29 14:04:12;;;;;;;9.05;6.22;;;;;;;19.27;36.83;95959.09;10289954;28;20618;-58
2022/03/29 14:09:32;;;;;;;9.05;6.50;;;;;;;19.27;36.75;95961.78;10306953;28;20043;-58
2022/03/29 14:14:51;;;;;;;10.60;6.10;;;;;;;19.28;36.63;95952.56;10289065;28;20395;-59
2022/03/29 14:20:11;;;;;;;12.07;6.45;;;;;;;19.29;36.53;95954.91;10288694;28;20108;-58
2022/03/29 14:25:33;;;;;;;10.88;6.45;;;;;;;19.30;36.41;95940.28;10288633;28;20059;-58
2022/03/29 14:30:53;;;;;;;13.32;9.57;;;;;;;19.32;36.09;95934.53;10274404;28;20417;-59
2022/03/29 14:36:13;;;;;;;10.40;6.95;;;;;;;19.33;36.11;95925.31;10287317;28;20046;-58
2022/03/29 14:41:32;;;;;;;11.52;7.20;;;;;;;19.34;36.13;95933.06;10274338;28;20054;-59
2022/03/29 14:46:56;;;;;;;8.30;6.38;;;;;;;19.35;36.25;95926.53;10301612;28;20414;-59
2022/03/29 14:52:18;;;;;;;8.82;5.80;;;;;;;19.38;36.07;95927.75;10293790;28;20058;-59
2022/03/29 14:57:38;;;;;;;12.07;9.38;;;;;;;19.40;35.25;95928.19;10273206;28;20477;-59
2022/03/29 15:02:57;;;;;;;12.40;8.48;;;;;;;19.38;35.24;95919.66;10267466;28;20062;-59
2022/03/29 15:08:16;;;;;;;11.10;6.68;;;;;;;19.40;36.11;95914.69;10290147;28;20043;-58
2022/03/29 15:13:36;;;;;;;26.35;10.98;;;;;;;19.42;36.18;95911.66;10289245;28;20058;-59
2022/03/29 15:18:55;;;;;;;14.73;7.90;;;;;;;19.46;36.89;95904.44;10284308;28;20054;-58
2022/03/29 15:24:17;;;;;;;8.85;6.82;;;;;;;19.48;36.65;95904.88;10291309;28;20066;-58
2022/03/29 15:29:36;;;;;;;10.23;6.40;;;;;;;19.48;36.60;95889.47;10296726;28;20055;-60
2022/03/29 15:34:55;;;;;;;8.32;6.18;;;;;;;19.51;36.35;95888.75;10292365;28;20461;-60
2022/03/29 15:40:15;;;;;;;10.23;6.47;;;;;;;19.52;36.29;95893.03;10294945;28;20568;-60
2022/03/29 15:45:39;;;;;;;8.63;6.05;;;;;;;19.53;35.95;95889.19;10287830;28;20046;-58
2022/03/29 15:51:00;;;;;;;9.68;6.00;;;;;;;19.55;35.87;95880.75;10293233;28;20056;-59
2022/03/29 15:56:20;;;;;;;6.93;5.35;;;;;;;19.58;35.78;95887.38;10293179;28;20129;-60
2022/03/29 16:01:39;;;;;;;5.57;4.72;;;;;;;19.56;35.69;95866.91;10291972;28;20054;-59
2022/03/29 16:06:59;;;;;;;9.32;4.68;;;;;;;19.61;35.88;95870.47;10295138;28;20424;-59
2022/03/29 16:12:19;;;;;;;5.38;4.00;;;;;;;19.63;35.55;95868.22;10280717;28;20057;-59
2022/03/29 16:17:42;;;;;;;4.70;3.72;;;;;;;19.64;35.58;95858.97;10295659;28;20159;-59
2022/03/29 16:23:01;;;;;;;5.88;4.10;;;;;;;19.66;35.59;95852.09;10285780;28;20058;-58
2022/03/29 16:28:22;;;;;;;5.55;4.00;;;;;;;19.67;35.54;95850.97;10269945;28;20073;-58
2022/03/29 16:33:41;;;;;;;4.95;3.65;;;;;;;19.70;35.71;95852.97;10293282;28;20054;-59
2022/03/29 16:39:02;;;;;;;5.90;3.47;;;;;;;19.73;35.53;95848.81;10305932;28;20038;-61
2022/03/29 16:44:22;;;;;;;7.57;3.75;;;;;;;19.74;35.64;95847.69;10278523;28;20546;-59
2022/03/29 16:49:43;;;;;;;9.00;4.20;;;;;;;19.77;35.55;95846.22;10292382;28;20050;-57
2022/03/29 16:55:03;;;;;;;4.70;3.50;;;;;;;19.78;35.31;95848.56;10302636;28;20034;-60
2022/03/29 17:00:22;;;;;;;5.75;3.70;;;;;;;19.82;35.39;95851.38;10293135;28;20137;-61
2022/03/29 17:05:42;;;;;;;6.47;3.90;;;;;;;19.83;35.33;95847.50;10306246;28;20047;-61
2022/03/29 17:11:02;;;;;;;4.78;3.70;;;;;;;19.85;32.67;95842.53;10305787;28;20057;-58
2022/03/29 17:16:24;;;;;;;7.28;3.80;;;;;;;19.83;31.24;95829.38;10271571;28;20055;-59
2022/03/29 17:21:43;;;;;;;6.05;3.42;;;;;;;19.84;33.40;95851.78;10256207;28;20039;-57
2022/03/29 17:27:03;;;;;;;4.40;3.42;;;;;;;19.86;33.80;95854.94;10252309;28;20051;-58
2022/03/29 17:32:23;;;;;;;3.85;3.35;;;;;;;19.88;33.77;95848.03;10279019;28;20055;-61
2022/03/29 17:37:44;;;;;;;5.10;3.75;;;;;;;19.92;33.88;95837.31;10287597;28;20051;-61
2022/03/29 17:43:03;;;;;;;8.02;4.18;;;;;;;19.94;33.86;95838.53;10286263;28;20058;-60
2022/03/29 17:48:24;;;;;;;7.88;5.32;;;;;;;19.96;34.36;95849.00;10280894;28;20122;-60
2022/03/29 17:53:44;;;;;;;7.88;4.70;;;;;;;20.01;35.19;95853.34;10275467;28;20047;-61
2022/03/29 17:59:03;;;;;;;7.28;5.28;;;;;;;20.03;35.18;95859.19;10288485;28;20430;-59
2022/03/29 18:04:23;;;;;;;11.45;7.43;;;;;;;20.06;35.86;95861.19;10284114;28;20057;-59
2022/03/29 18:09:43;;;;;;;9.82;5.85;;;;;;;20.08;36.54;95862.41;10258809;28;20477;-60
2022/03/29 18:15:03;;;;;;;8.77;5.80;;;;;;;20.12;36.70;95865.97;10268349;28;20090;-59
2022/03/29 18:20:23;;;;;;;9.60;5.22;;;;;;;20.17;36.98;95873.06;10251370;28;20055;-59
2022/03/29 18:25:43;;;;;;;9.20;5.80;;;;;;;20.19;37.27;95875.41;10251766;28;20114;-58
2022/03/29 18:31:03;;;;;;;9.18;5.30;;;;;;;20.21;37.44;95875.81;10270281;28;20061;-60
2022/03/29 18:36:23;;;;;;;11.05;5.43;;;;;;;20.24;37.79;95870.50;10296732;28;20192;-58
2022/03/29 18:41:42;;;;;;;10.05;4.93;;;;;;;20.24;38.01;95870.50;10295835;28;20038;-58
2022/03/29 18:47:03;;;;;;;11.00;5.00;;;;;;;20.26;38.06;95870.16;10301593;28;20050;-54
2022/03/29 18:52:22;;;;;;;11.40;5.25;;;;;;;20.27;38.23;95880.63;10289597;28;20556;-56
2022/03/29 18:57:45;;;;;;;10.70;5.03;;;;;;;20.29;38.36;95883.78;10309939;28;20045;-59
2022/03/29 19:03:04;;;;;;;11.73;4.57;;;;;;;20.30;38.42;95877.22;10315011;28;20050;-63
2022/03/29 19:08:24;;;;;;;10.85;4.80;;;;;;;20.31;38.68;95884.22;10300859;28;20063;-56
2022/03/29 19:13:44;;;;;;;8.45;4.80;;;;;;;20.31;38.82;95889.63;10284098;28;20055;-53
2022/03/29 19:19:03;;;;;;;8.95;5.10;;;;;;;20.31;38.81;95884.22;10300974;28;20047;-55
2022/03/29 19:24:23;;;;;;;10.48;5.45;;;;;;;20.32;38.82;95885.75;10295373;28;20062;-54
2022/03/29 19:29:43;;;;;;;6.65;4.47;;;;;;;20.33;38.97;95881.94;10287632;28;20065;-57
2022/03/29 19:35:04;;;;;;;7.70;4.18;;;;;;;20.33;39.04;95884.63;10313093;28;20109;-53
2022/03/29 19:40:23;;;;;;;9.88;4.63;;;;;;;20.33;39.12;95884.63;10301707;28;20529;-52
2022/03/29 19:45:43;;;;;;;8.38;4.10;;;;;;;20.34;39.26;95886.19;10268505;28;20465;-52
2022/03/29 19:51:32;;;;;;;7.38;4.72;;;;;;;20.33;39.47;95890.03;10299040;28;20540;-53
2022/03/29 19:56:52;;;;;;;5.93;4.10;;;;;;;20.34;39.53;95888.13;10295062;28;20478;-56
2022/03/29 20:02:12;;;;;;;9.13;4.47;;;;;;;20.34;39.64;95888.13;10299538;28;20050;-56
2022/03/29 20:07:34;;;;;;;7.20;4.53;;;;;;;20.33;39.82;95895.47;10308341;28;20051;-52
2022/03/29 20:12:54;;;;;;;6.72;4.18;;;;;;;20.33;40.10;95890.03;10293660;28;20059;-52
2022/03/29 20:18:14;;;;;;;6.75;4.38;;;;;;;20.34;39.92;95874.59;10293330;28;20584;-54
2022/03/29 20:23:34;;;;;;;5.57;3.88;;;;;;;20.34;40.12;95880.00;10291356;28;20771;-53
2022/03/29 20:28:53;;;;;;;6.90;3.80;;;;;;;20.33;40.36;95873.81;10292820;28;20051;-56
2022/03/29 20:34:13;;;;;;;5.15;3.97;;;;;;;20.33;40.39;95875.75;10289782;28;20047;-53
2022/03/29 20:39:33;;;;;;;5.93;4.43;;;;;;;20.32;40.55;95869.53;10293006;28;20065;-57
2022/03/29 20:44:53;;;;;;;5.32;4.05;;;;;;;20.33;40.61;95862.22;10293350;28;20467;-59
2022/03/29 20:50:12;;;;;;;6.32;4.22;;;;;;;20.32;40.53;95866.81;10293730;28;20058;-57
2022/03/29 20:55:32;;;;;;;4.20;3.70;;;;;;;20.32;40.62;95863.34;10292878;28;20058;-56
2022/03/29 21:00:52;;;;;;;6.88;4.15;;;;;;;20.32;40.74;95872.22;10301684;28;20055;-57
2022/03/29 21:06:11;;;;;;;5.32;4.32;;;;;;;20.32;40.61;95866.81;10279898;28;20122;-56
2022/03/29 21:11:31;;;;;;;4.57;3.83;;;;;;;20.32;40.49;95864.13;10286813;28;20055;-58
2022/03/29 21:16:57;;;;;;;5.72;4.05;;;;;;;20.31;40.55;95862.56;10285577;28;20050;-57
2022/03/29 21:22:16;;;;;;;5.32;4.10;;;;;;;20.31;40.74;95870.69;10280158;28;20494;-58
2022/03/29 21:27:36;;;;;;;6.53;4.15;;;;;;;20.31;40.76;95869.91;10288492;28;20059;-57
2022/03/29 21:32:56;;;;;;;4.97;4.20;;;;;;;20.29;40.71;95867.53;10269437;28;20069;-56
2022/03/29 21:38:15;;;;;;;6.45;4.20;;;;;;;20.29;40.90;95874.88;10291528;28;20047;-58
2022/03/29 21:43:35;;;;;;;5.63;3.95;;;;;;;20.28;40.92;95870.59;10296609;28;20417;-57
2022/03/29 21:48:55;;;;;;;6.00;4.32;;;;;;;20.28;40.91;95871.38;10294780;28;20675;-58
2022/03/29 21:54:15;;;;;;;4.82;3.85;;;;;;;20.25;41.02;95869.38;10288820;28;20580;-56
2022/03/29 21:59:53;;;;;;;5.00;3.83;;;;;;;20.26;41.07;95868.22;10302100;28;20049;-58
2022/03/29 22:05:32;;;;;;;5.65;3.92;;;;;;;20.24;41.05;95856.97;10300225;28;20050;-57
2022/03/29 22:10:51;;;;;;;6.35;3.88;;;;;;;20.24;41.21;95848.09;10299224;28;20113;-56
2022/03/29 22:16:11;;;;;;;5.65;3.72;;;;;;;20.24;41.31;95862.41;10306051;28;20661;-58
2022/03/29 22:21:30;;;;;;;7.20;3.80;;;;;;;20.22;41.36;95845.72;10302219;28;20073;-58
2022/03/29 22:26:50;;;;;;;4.30;3.35;;;;;;;20.22;41.39;95853.06;10288578;28;20109;-58
2022/03/29 22:32:10;;;;;;;4.65;3.80;;;;;;;20.19;41.31;95846.47;10299428;28;20097;-58
2022/03/29 22:37:30;;;;;;;4.40;3.80;;;;;;;20.19;41.32;95849.16;10286775;28;20050;-57
2022/03/29 22:42:50;;;;;;;3.95;3.58;;;;;;;20.19;41.40;95846.47;10285980;28;20051;-57
2022/03/29 22:48:10;;;;;;;4.40;3.72;;;;;;;20.18;41.51;95847.56;10280798;28;20043;-58
2022/03/29 22:53:29;;;;;;;5.65;3.88;;;;;;;20.18;41.56;95847.56;10296253;28;20054;-58
2022/03/29 22:58:49;;;;;;;4.43;3.45;;;;;;;20.15;41.48;95832.06;10299057;28;20045;-58
2022/03/29 23:04:08;;;;;;;4.63;3.75;;;;;;;20.15;41.57;95834.78;10296921;28;20043;-58
2022/03/29 23:09:27;;;;;;;3.78;3.35;;;;;;;20.13;41.71;95842.44;10334504;28;20046;-58
2022/03/29 23:14:47;;;;;;;5.43;3.67;;;;;;;20.14;41.61;95844.00;10281846;28;20055;-58
2022/03/29 23:20:08;;;;;;;3.90;3.50;;;;;;;20.11;41.62;95829.28;10283296;28;20513;-58
2022/03/29 23:25:28;;;;;;;3.50;3.20;;;;;;;20.10;41.74;95825.00;10282175;28;20418;-57
2022/03/29 23:30:48;;;;;;;5.00;3.55;;;;;;;20.10;41.70;95832.31;10283882;28;20458;-57
2022/03/29 23:36:07;;;;;;;3.47;3.17;;;;;;;20.09;41.70;95830.75;10283896;28;20647;-58
2022/03/29 23:41:27;;;;;;;5.07;3.63;;;;;;;20.08;41.68;95824.56;10298432;28;20405;-58
2022/03/29 23:46:46;;;;;;;3.65;3.30;;;;;;;20.07;41.71;95824.91;10288637;28;20105;-58
2022/03/29 23:52:06;;;;;;;3.85;3.50;;;;;;;20.06;41.71;95823.34;10287149;28;20514;-58
2022/03/29 23:57:25;;;;;;;3.90;3.50;;;;;;;20.06;41.70;95826.81;10302904;28;20049;-57
